sensor_id;sensor_type;location;lat;lon;timestamp;pressure;altitude;pressure_sealevel;temperature;humidity
74615;BME280;63121;51.458;-0.110;2022-10-16T00:01:57;100465.91;;;13.42;71.89
74615;BME280;63121;51.458;-0.110;2022-10-16T00:04:23;100464.31;;;13.38;72.62
74615;BME280;63121;51.458;-0.110;2022-10-16T00:06:49;100469.75;;;13.29;72.43
74615;BME280;63121;51.458;-0.110;2022-10-16T00:09:14;100463.41;;;13.41;72.95
74615;BME280;63121;51.458;-0.110;2022-10-16T00:11:40;100463.72;;;13.29;72.89
74615;BME280;63121;51.458;-0.110;2022-10-16T00:14:15;100463.91;;;13.19;73.70
74615;BME280;63121;51.458;-0.110;2022-10-16T00:16:44;100462.41;;;13.11;74.13
74615;BME280;63121;51.458;-0.110;2022-10-16T00:19:10;100463.59;;;12.99;74.03
74615;BME280;63121;51.458;-0.110;2022-10-16T00:21:36;100470.53;;;12.97;74.99
74615;BME280;63121;51.458;-0.110;2022-10-16T00:24:06;100475.03;;;12.90;74.90
74615;BME280;63121;51.458;-0.110;2022-10-16T00:26:35;100468.97;;;12.90;74.57
74615;BME280;63121;51.458;-0.110;2022-10-16T00:29:01;100469.22;;;12.80;74.54
74615;BME280;63121;51.458;-0.110;2022-10-16T00:31:27;100475.91;;;12.89;74.67
74615;BME280;63121;51.458;-0.110;2022-10-16T00:33:53;100476.75;;;12.90;74.54
74615;BME280;63121;51.458;-0.110;2022-10-16T00:36:22;100479.63;;;12.77;74.55
74615;BME280;63121;51.458;-0.110;2022-10-16T00:38:50;100482.13;;;12.82;74.66
74615;BME280;63121;51.458;-0.110;2022-10-16T00:41:18;100482.06;;;12.84;74.52
74615;BME280;63121;51.458;-0.110;2022-10-16T00:43:46;100477.00;;;12.79;74.38
74615;BME280;63121;51.458;-0.110;2022-10-16T00:46:27;100476.97;;;12.80;74.24
74615;BME280;63121;51.458;-0.110;2022-10-16T00:48:59;100490.16;;;12.71;75.01
74615;BME280;63121;51.458;-0.110;2022-10-16T00:51:34;100493.47;;;12.78;74.80
74615;BME280;63121;51.458;-0.110;2022-10-16T00:54:02;100490.97;;;12.73;75.10
74615;BME280;63121;51.458;-0.110;2022-10-16T00:56:29;100483.16;;;12.75;74.48
74615;BME280;63121;51.458;-0.110;2022-10-16T00:58:54;100480.63;;;12.73;74.46
74615;BME280;63121;51.458;-0.110;2022-10-16T01:01:20;100483.97;;;12.77;73.91
74615;BME280;63121;51.458;-0.110;2022-10-16T01:03:46;100489.25;;;12.72;74.28
74615;BME280;63121;51.458;-0.110;2022-10-16T01:08:57;100493.47;;;12.76;74.10
74615;BME280;63121;51.458;-0.110;2022-10-16T01:17:02;100507.97;;;12.84;74.11
74615;BME280;63121;51.458;-0.110;2022-10-16T01:19:43;100499.38;;;12.83;73.85
74615;BME280;63121;51.458;-0.110;2022-10-16T01:22:10;100508.13;;;12.77;74.43
74615;BME280;63121;51.458;-0.110;2022-10-16T01:24:41;100508.78;;;12.86;74.33
74615;BME280;63121;51.458;-0.110;2022-10-16T01:27:15;100507.13;;;12.83;74.15
74615;BME280;63121;51.458;-0.110;2022-10-16T01:40:00;100515.56;;;12.91;74.63
74615;BME280;63121;51.458;-0.110;2022-10-16T01:42:35;100514.63;;;12.95;74.64
74615;BME280;63121;51.458;-0.110;2022-10-16T01:45:03;100514.72;;;12.92;74.37
74615;BME280;63121;51.458;-0.110;2022-10-16T01:47:32;100522.75;;;13.16;74.35
74615;BME280;63121;51.458;-0.110;2022-10-16T01:49:59;100531.13;;;13.26;73.86
74615;BME280;63121;51.458;-0.110;2022-10-16T01:52:27;100542.88;;;13.42;73.83
74615;BME280;63121;51.458;-0.110;2022-10-16T01:54:56;100532.84;;;13.27;75.04
74615;BME280;63121;51.458;-0.110;2022-10-16T01:57:24;100541.25;;;13.38;74.74
74615;BME280;63121;51.458;-0.110;2022-10-16T01:59:54;100538.84;;;13.30;75.42
74615;BME280;63121;51.458;-0.110;2022-10-16T02:02:21;100535.41;;;13.30;75.72
74615;BME280;63121;51.458;-0.110;2022-10-16T02:04:55;100533.25;;;13.47;74.92
74615;BME280;63121;51.458;-0.110;2022-10-16T02:07:22;100536.03;;;13.39;75.78
74615;BME280;63121;51.458;-0.110;2022-10-16T02:09:48;100538.19;;;13.20;75.54
74615;BME280;63121;51.458;-0.110;2022-10-16T02:12:25;100542.31;;;13.28;75.05
74615;BME280;63121;51.458;-0.110;2022-10-16T02:14:52;100543.38;;;13.20;75.08
74615;BME280;63121;51.458;-0.110;2022-10-16T02:17:19;100552.38;;;13.06;75.35
74615;BME280;63121;51.458;-0.110;2022-10-16T02:19:46;100549.78;;;13.06;75.27
74615;BME280;63121;51.458;-0.110;2022-10-16T02:22:20;100544.34;;;13.16;75.07
74615;BME280;63121;51.458;-0.110;2022-10-16T02:24:51;100563.63;;;13.05;75.62
74615;BME280;63121;51.458;-0.110;2022-10-16T02:27:41;100561.16;;;12.98;75.61
74615;BME280;63121;51.458;-0.110;2022-10-16T02:30:32;100561.34;;;12.92;75.57
74615;BME280;63121;51.458;-0.110;2022-10-16T02:33:01;100571.72;;;12.91;76.16
74615;BME280;63121;51.458;-0.110;2022-10-16T02:35:28;100571.78;;;12.88;76.17
74615;BME280;63121;51.458;-0.110;2022-10-16T02:37:56;100577.91;;;12.84;75.82
74615;BME280;63121;51.458;-0.110;2022-10-16T02:40:22;100576.22;;;12.84;75.94
74615;BME280;63121;51.458;-0.110;2022-10-16T02:42:51;100575.53;;;12.74;76.50
74615;BME280;63121;51.458;-0.110;2022-10-16T02:45:17;100579.22;;;12.64;76.63
74615;BME280;63121;51.458;-0.110;2022-10-16T02:47:42;100570.63;;;12.62;76.22
74615;BME280;63121;51.458;-0.110;2022-10-16T02:50:08;100574.19;;;12.58;76.27
74615;BME280;63121;51.458;-0.110;2022-10-16T02:52:33;100586.38;;;12.53;75.65
74615;BME280;63121;51.458;-0.110;2022-10-16T02:54:59;100591.59;;;12.51;76.14
74615;BME280;63121;51.458;-0.110;2022-10-16T02:57:24;100591.59;;;12.51;75.52
74615;BME280;63121;51.458;-0.110;2022-10-16T02:59:49;100587.19;;;12.55;75.11
74615;BME280;63121;51.458;-0.110;2022-10-16T03:02:15;100604.38;;;12.59;74.76
74615;BME280;63121;51.458;-0.110;2022-10-16T03:04:40;100613.19;;;12.50;73.89
74615;BME280;63121;51.458;-0.110;2022-10-16T03:07:06;100602.75;;;12.53;73.34
74615;BME280;63121;51.458;-0.110;2022-10-16T03:09:32;100607.09;;;12.53;73.14
74615;BME280;63121;51.458;-0.110;2022-10-16T03:11:58;100609.00;;;12.45;73.11
74615;BME280;63121;51.458;-0.110;2022-10-16T03:14:23;100601.78;;;12.59;72.88
74615;BME280;63121;51.458;-0.110;2022-10-16T03:16:49;100607.94;;;12.53;72.91
74615;BME280;63121;51.458;-0.110;2022-10-16T03:19:17;100608.28;;;12.36;72.64
74615;BME280;63121;51.458;-0.110;2022-10-16T03:21:43;100616.06;;;12.35;72.63
74615;BME280;63121;51.458;-0.110;2022-10-16T03:24:08;100615.22;;;12.34;72.97
74615;BME280;63121;51.458;-0.110;2022-10-16T03:26:34;100616.78;;;12.43;72.43
74615;BME280;63121;51.458;-0.110;2022-10-16T03:28:59;100622.69;;;12.50;72.30
74615;BME280;63121;51.458;-0.110;2022-10-16T03:31:25;100626.22;;;12.46;72.58
74615;BME280;63121;51.458;-0.110;2022-10-16T03:33:50;100617.75;;;12.37;72.57
74615;BME280;63121;51.458;-0.110;2022-10-16T03:36:15;100630.84;;;12.31;72.74
74615;BME280;63121;51.458;-0.110;2022-10-16T03:38:41;100633.16;;;12.44;72.41
74615;BME280;63121;51.458;-0.110;2022-10-16T03:41:06;100626.34;;;12.39;72.73
74615;BME280;63121;51.458;-0.110;2022-10-16T03:43:33;100633.53;;;12.25;72.71
74615;BME280;63121;51.458;-0.110;2022-10-16T03:45:58;100629.22;;;12.24;73.01
74615;BME280;63121;51.458;-0.110;2022-10-16T03:48:23;100625.94;;;12.16;73.08
74615;BME280;63121;51.458;-0.110;2022-10-16T03:50:49;100624.06;;;12.24;72.93
74615;BME280;63121;51.458;-0.110;2022-10-16T03:53:15;100624.06;;;12.24;73.06
74615;BME280;63121;51.458;-0.110;2022-10-16T03:55:41;100628.63;;;12.10;73.67
74615;BME280;63121;51.458;-0.110;2022-10-16T03:58:07;100631.41;;;11.99;74.01
74615;BME280;63121;51.458;-0.110;2022-10-16T04:00:33;100628.88;;;11.97;73.92
74615;BME280;63121;51.458;-0.110;2022-10-16T04:02:59;100636.50;;;12.04;73.80
74615;BME280;63121;51.458;-0.110;2022-10-16T04:05:24;100639.91;;;12.07;73.89
74615;BME280;63121;51.458;-0.110;2022-10-16T04:07:50;100653.72;;;12.06;73.64
74615;BME280;63121;51.458;-0.110;2022-10-16T04:10:15;100645.88;;;12.11;73.84
74615;BME280;63121;51.458;-0.110;2022-10-16T04:12:41;100660.56;;;12.10;74.00
74615;BME280;63121;51.458;-0.110;2022-10-16T04:15:06;100651.28;;;11.98;74.17
74615;BME280;63121;51.458;-0.110;2022-10-16T04:17:32;100662.44;;;12.02;74.23
74615;BME280;63121;51.458;-0.110;2022-10-16T04:19:57;100662.38;;;12.05;74.17
74615;BME280;63121;51.458;-0.110;2022-10-16T04:22:22;100663.34;;;11.99;74.64
74615;BME280;63121;51.458;-0.110;2022-10-16T04:24:48;100667.75;;;11.93;74.64
74615;BME280;63121;51.458;-0.110;2022-10-16T04:27:13;100674.47;;;12.03;75.01
74615;BME280;63121;51.458;-0.110;2022-10-16T04:29:39;100672.78;;;12.02;75.23
74615;BME280;63121;51.458;-0.110;2022-10-16T04:32:04;100689.88;;;12.09;74.75
74615;BME280;63121;51.458;-0.110;2022-10-16T04:34:29;100695.38;;;11.91;75.48
74615;BME280;63121;51.458;-0.110;2022-10-16T04:36:55;100706.44;;;11.99;75.38
74615;BME280;63121;51.458;-0.110;2022-10-16T04:39:20;100716.00;;;11.95;75.56
74615;BME280;63121;51.458;-0.110;2022-10-16T04:41:46;100714.28;;;11.96;75.51
74615;BME280;63121;51.458;-0.110;2022-10-16T04:44:11;100722.78;;;12.03;74.97
74615;BME280;63121;51.458;-0.110;2022-10-16T04:46:37;100736.63;;;12.00;75.35
74615;BME280;63121;51.458;-0.110;2022-10-16T04:49:02;100738.53;;;11.87;75.43
74615;BME280;63121;51.458;-0.110;2022-10-16T04:51:27;100736.81;;;11.85;75.45
74615;BME280;63121;51.458;-0.110;2022-10-16T04:53:53;100747.06;;;11.95;75.25
74615;BME280;63121;51.458;-0.110;2022-10-16T04:56:19;100757.44;;;11.91;75.31
74615;BME280;63121;51.458;-0.110;2022-10-16T04:58:46;100755.59;;;12.00;74.86
74615;BME280;63121;51.458;-0.110;2022-10-16T05:01:11;100745.41;;;11.90;74.90
74615;BME280;63121;51.458;-0.110;2022-10-16T05:03:37;100759.19;;;11.90;75.38
74615;BME280;63121;51.458;-0.110;2022-10-16T05:06:05;100760.75;;;12.00;74.83
74615;BME280;63121;51.458;-0.110;2022-10-16T05:08:30;100773.00;;;11.88;75.08
74615;BME280;63121;51.458;-0.110;2022-10-16T05:10:55;100772.13;;;11.90;74.93
74615;BME280;63121;51.458;-0.110;2022-10-16T05:13:21;100777.34;;;11.87;74.67
74615;BME280;63121;51.458;-0.110;2022-10-16T05:15:47;100772.03;;;11.96;74.11
74615;BME280;63121;51.458;-0.110;2022-10-16T05:18:13;100785.13;;;11.84;74.06
74615;BME280;63121;51.458;-0.110;2022-10-16T05:20:39;100780.72;;;11.92;73.51
74615;BME280;63121;51.458;-0.110;2022-10-16T05:23:04;100787.53;;;11.99;73.00
74615;BME280;63121;51.458;-0.110;2022-10-16T05:25:29;100791.91;;;11.93;72.82
74615;BME280;63121;51.458;-0.110;2022-10-16T05:27:55;100802.34;;;11.88;72.99
74615;BME280;63121;51.458;-0.110;2022-10-16T05:30:20;100803.94;;;11.97;72.58
74615;BME280;63121;51.458;-0.110;2022-10-16T05:32:50;100809.19;;;11.92;72.51
74615;BME280;63121;51.458;-0.110;2022-10-16T05:35:16;100811.81;;;11.89;72.37
74615;BME280;63121;51.458;-0.110;2022-10-16T05:37:42;100806.66;;;11.85;72.91
74615;BME280;63121;51.458;-0.110;2022-10-16T05:40:09;100821.25;;;11.93;72.72
74615;BME280;63121;51.458;-0.110;2022-10-16T05:42:34;100820.41;;;11.91;72.54
74615;BME280;63121;51.458;-0.110;2022-10-16T05:45:00;100819.38;;;12.02;72.43
74615;BME280;63121;51.458;-0.110;2022-10-16T05:47:25;100828.88;;;12.01;72.37
74615;BME280;63121;51.458;-0.110;2022-10-16T05:49:51;100835.94;;;11.91;72.77
74615;BME280;63121;51.458;-0.110;2022-10-16T05:52:16;100852.31;;;11.90;72.50
74615;BME280;63121;51.458;-0.110;2022-10-16T05:54:42;100852.34;;;11.87;72.82
74615;BME280;63121;51.458;-0.110;2022-10-16T05:57:08;100848.91;;;11.85;72.54
74615;BME280;63121;51.458;-0.110;2022-10-16T05:59:33;100855.88;;;11.80;73.25
74615;BME280;63121;51.458;-0.110;2022-10-16T06:01:58;100858.47;;;11.80;72.79
74615;BME280;63121;51.458;-0.110;2022-10-16T06:04:24;100860.22;;;11.78;72.95
74615;BME280;63121;51.458;-0.110;2022-10-16T06:06:49;100867.09;;;11.79;73.23
74615;BME280;63121;51.458;-0.110;2022-10-16T06:09:14;100872.31;;;11.76;73.10
74615;BME280;63121;51.458;-0.110;2022-10-16T06:11:40;100871.50;;;11.72;73.01
74615;BME280;63121;51.458;-0.110;2022-10-16T06:14:05;100880.09;;;11.74;73.08
74615;BME280;63121;51.458;-0.110;2022-10-16T06:16:35;100882.81;;;11.64;73.33
74615;BME280;63121;51.458;-0.110;2022-10-16T06:19:00;100875.94;;;11.63;73.65
74615;BME280;63121;51.458;-0.110;2022-10-16T06:21:27;100874.25;;;11.60;73.16
74615;BME280;63121;51.458;-0.110;2022-10-16T06:23:53;100878.53;;;11.61;73.58
74615;BME280;63121;51.458;-0.110;2022-10-16T06:26:22;100889.75;;;11.62;73.11
74615;BME280;63121;51.458;-0.110;2022-10-16T06:28:48;100881.19;;;11.55;73.17
74615;BME280;63121;51.458;-0.110;2022-10-16T06:31:14;100882.16;;;11.49;74.03
74615;BME280;63121;51.458;-0.110;2022-10-16T06:33:40;100888.13;;;11.53;73.78
74615;BME280;63121;51.458;-0.110;2022-10-16T06:36:11;100889.00;;;11.52;73.39
74615;BME280;63121;51.458;-0.110;2022-10-16T06:38:37;100890.69;;;11.56;73.72
74615;BME280;63121;51.458;-0.110;2022-10-16T06:41:03;100895.91;;;11.51;73.69
74615;BME280;63121;51.458;-0.110;2022-10-16T06:43:29;100901.91;;;11.53;73.66
74615;BME280;63121;51.458;-0.110;2022-10-16T06:46:01;100898.50;;;11.48;73.40
74615;BME280;63121;51.458;-0.110;2022-10-16T06:48:27;100903.53;;;11.62;73.07
74615;BME280;63121;51.458;-0.110;2022-10-16T06:53:23;100916.53;;;11.56;72.99
74615;BME280;63121;51.458;-0.110;2022-10-16T06:55:49;100916.59;;;11.51;73.45
74615;BME280;63121;51.458;-0.110;2022-10-16T06:58:14;100916.53;;;11.57;73.11
74615;BME280;63121;51.458;-0.110;2022-10-16T07:00:40;100918.16;;;11.63;72.80
74615;BME280;63121;51.458;-0.110;2022-10-16T07:03:05;100924.03;;;11.77;72.05
74615;BME280;63121;51.458;-0.110;2022-10-16T07:05:30;100931.84;;;11.71;72.39
74615;BME280;63121;51.458;-0.110;2022-10-16T07:07:56;100937.00;;;11.74;71.96
74615;BME280;63121;51.458;-0.110;2022-10-16T07:10:21;100942.94;;;11.81;71.61
74615;BME280;63121;51.458;-0.110;2022-10-16T07:12:49;100953.25;;;11.84;71.81
74615;BME280;63121;51.458;-0.110;2022-10-16T07:15:14;100960.16;;;11.82;71.82
74615;BME280;63121;51.458;-0.110;2022-10-16T07:17:40;100961.84;;;11.86;71.46
74615;BME280;63121;51.458;-0.110;2022-10-16T07:20:06;100965.28;;;11.90;71.34
74615;BME280;63121;51.458;-0.110;2022-10-16T07:22:31;100967.88;;;11.90;71.14
74615;BME280;63121;51.458;-0.110;2022-10-16T07:24:56;100977.22;;;12.00;70.96
74615;BME280;63121;51.458;-0.110;2022-10-16T07:27:22;100990.09;;;12.05;71.20
74615;BME280;63121;51.458;-0.110;2022-10-16T07:29:49;100983.09;;;12.14;71.03
74615;BME280;63121;51.458;-0.110;2022-10-16T07:32:14;100977.91;;;12.14;70.97
74615;BME280;63121;51.458;-0.110;2022-10-16T07:34:39;100987.31;;;12.20;70.96
74615;BME280;63121;51.458;-0.110;2022-10-16T07:37:05;100987.25;;;12.25;70.74
74615;BME280;63121;51.458;-0.110;2022-10-16T07:39:30;100995.75;;;12.34;70.75
74615;BME280;63121;51.458;-0.110;2022-10-16T07:41:55;101004.28;;;12.41;69.92
74615;BME280;63121;51.458;-0.110;2022-10-16T07:44:21;101002.53;;;12.43;70.27
74615;BME280;63121;51.458;-0.110;2022-10-16T07:46:46;101006.84;;;12.44;69.62
74615;BME280;63121;51.458;-0.110;2022-10-16T07:49:12;101009.13;;;12.64;69.52
74615;BME280;63121;51.458;-0.110;2022-10-16T07:51:37;101010.78;;;12.68;68.52
74615;BME280;63121;51.458;-0.110;2022-10-16T07:54:04;101014.13;;;12.75;69.09
74615;BME280;63121;51.458;-0.110;2022-10-16T07:56:31;101010.53;;;12.84;68.26
74615;BME280;63121;51.458;-0.110;2022-10-16T07:58:57;101014.81;;;12.88;68.43
74615;BME280;63121;51.458;-0.110;2022-10-16T08:01:23;101004.38;;;12.92;67.85
74615;BME280;63121;51.458;-0.110;2022-10-16T08:03:50;101015.69;;;12.88;68.33
74615;BME280;63121;51.458;-0.110;2022-10-16T08:06:16;101018.03;;;13.02;67.84
74615;BME280;63121;51.458;-0.110;2022-10-16T08:08:42;101022.75;;;13.33;67.15
74615;BME280;63121;51.458;-0.110;2022-10-16T08:11:08;101032.34;;;13.25;67.46
74615;BME280;63121;51.458;-0.110;2022-10-16T08:13:34;101033.88;;;13.38;66.61
74615;BME280;63121;51.458;-0.110;2022-10-16T08:15:59;101025.59;;;13.66;66.06
74615;BME280;63121;51.458;-0.110;2022-10-16T08:18:25;101025.59;;;13.66;65.81
74615;BME280;63121;51.458;-0.110;2022-10-16T08:20:59;101044.72;;;13.60;65.52
74615;BME280;63121;51.458;-0.110;2022-10-16T08:23:26;101061.38;;;13.93;65.75
74615;BME280;63121;51.458;-0.110;2022-10-16T08:25:53;101057.78;;;14.02;65.10
74615;BME280;63121;51.458;-0.110;2022-10-16T08:28:18;101060.41;;;14.00;65.39
74615;BME280;63121;51.458;-0.110;2022-10-16T08:30:44;101055.25;;;13.97;64.91
74615;BME280;63121;51.458;-0.110;2022-10-16T08:33:09;101062.19;;;13.95;64.23
74615;BME280;63121;51.458;-0.110;2022-10-16T08:35:35;101066.22;;;14.12;63.84
74615;BME280;63121;51.458;-0.110;2022-10-16T08:38:03;101073.16;;;14.11;64.08
74615;BME280;63121;51.458;-0.110;2022-10-16T08:40:31;101076.38;;;14.22;63.23
74615;BME280;63121;51.458;-0.110;2022-10-16T08:50:53;101088.41;;;14.70;61.99
74615;BME280;63121;51.458;-0.110;2022-10-16T08:53:30;101088.22;;;14.78;61.54
74615;BME280;63121;51.458;-0.110;2022-10-16T08:55:56;101095.09;;;14.80;61.82
74615;BME280;63121;51.458;-0.110;2022-10-16T08:58:27;101091.00;;;14.70;62.09
74615;BME280;63121;51.458;-0.110;2022-10-16T09:00:59;101090.88;;;14.75;61.38
74615;BME280;63121;51.458;-0.110;2022-10-16T09:08:54;101092.13;;;14.96;60.31
74615;BME280;63121;51.458;-0.110;2022-10-16T09:14:19;101110.06;;;15.08;60.49
74615;BME280;63121;51.458;-0.110;2022-10-16T09:16:57;101100.75;;;14.98;61.22
74615;BME280;63121;51.458;-0.110;2022-10-16T09:19:44;101113.03;;;14.93;61.18
74615;BME280;63121;51.458;-0.110;2022-10-16T09:22:16;101108.84;;;14.86;60.62
74615;BME280;63121;51.458;-0.110;2022-10-16T09:24:42;101109.41;;;14.98;60.59
74615;BME280;63121;51.458;-0.110;2022-10-16T09:27:12;101121.63;;;14.95;60.39
74615;BME280;63121;51.458;-0.110;2022-10-16T09:29:37;101120.03;;;14.89;60.21
74615;BME280;63121;51.458;-0.110;2022-10-16T09:32:15;101123.91;;;15.09;59.86
74615;BME280;63121;51.458;-0.110;2022-10-16T09:34:46;101128.66;;;15.29;59.70
74615;BME280;63121;51.458;-0.110;2022-10-16T09:37:14;101124.91;;;15.39;59.36
74615;BME280;63121;51.458;-0.110;2022-10-16T09:39:53;101120.59;;;15.39;59.42
74615;BME280;63121;51.458;-0.110;2022-10-16T09:42:25;101117.47;;;15.59;59.34
74615;BME280;63121;51.458;-0.110;2022-10-16T09:44:53;101119.66;;;15.76;58.60
74615;BME280;63121;51.458;-0.110;2022-10-16T09:47:39;101121.63;;;15.67;58.32
74615;BME280;63121;51.458;-0.110;2022-10-16T09:50:26;101118.56;;;15.85;58.45
74615;BME280;63121;51.458;-0.110;2022-10-16T09:53:12;101122.94;;;15.49;58.60
74615;BME280;63121;51.458;-0.110;2022-10-16T09:55:48;101118.97;;;15.68;57.64
74615;BME280;63121;51.458;-0.110;2022-10-16T09:58:14;101125.69;;;15.42;58.34
74615;BME280;63121;51.458;-0.110;2022-10-16T10:00:41;101135.38;;;15.73;57.95
74615;BME280;63121;51.458;-0.110;2022-10-16T10:03:44;101140.00;;;15.60;57.88
74615;BME280;63121;51.458;-0.110;2022-10-16T10:06:25;101137.94;;;15.75;57.25
74615;BME280;63121;51.458;-0.110;2022-10-16T10:09:05;101143.69;;;15.88;57.54
74615;BME280;63121;51.458;-0.110;2022-10-16T10:14:40;101153.91;;;15.59;57.12
74615;BME280;63121;51.458;-0.110;2022-10-16T10:17:12;101152.53;;;15.80;57.40
74615;BME280;63121;51.458;-0.110;2022-10-16T10:22:20;101159.25;;;15.89;58.24
74615;BME280;63121;51.458;-0.110;2022-10-16T10:24:56;101158.25;;;15.95;57.81
74615;BME280;63121;51.458;-0.110;2022-10-16T10:30:44;101153.63;;;15.72;57.82
74615;BME280;63121;51.458;-0.110;2022-10-16T10:46:58;101145.41;;;16.20;56.92
74615;BME280;63121;51.458;-0.110;2022-10-16T10:49:42;101153.03;;;16.28;57.19
74615;BME280;63121;51.458;-0.110;2022-10-16T10:54:56;101148.38;;;16.69;56.59
74615;BME280;63121;51.458;-0.110;2022-10-16T10:57:29;101151.50;;;16.80;54.51
74615;BME280;63121;51.458;-0.110;2022-10-16T11:00:20;101156.78;;;17.08;54.40
74615;BME280;63121;51.458;-0.110;2022-10-16T11:02:55;101146.91;;;16.90;54.48
74615;BME280;63121;51.458;-0.110;2022-10-16T11:11:03;101135.72;;;17.14;52.11
74615;BME280;63121;51.458;-0.110;2022-10-16T11:13:55;101134.66;;;16.92;52.19
74615;BME280;63121;51.458;-0.110;2022-10-16T11:16:28;101140.47;;;17.28;51.79
74615;BME280;63121;51.458;-0.110;2022-10-16T11:19:01;101144.19;;;17.21;51.92
74615;BME280;63121;51.458;-0.110;2022-10-16T11:21:31;101135.59;;;17.17;51.46
74615;BME280;63121;51.458;-0.110;2022-10-16T11:24:06;101140.06;;;17.14;51.16
74615;BME280;63121;51.458;-0.110;2022-10-16T11:26:39;101133.81;;;17.19;52.04
74615;BME280;63121;51.458;-0.110;2022-10-16T11:29:18;101130.88;;;17.02;51.17
74615;BME280;63121;51.458;-0.110;2022-10-16T11:31:49;101134.28;;;17.04;50.75
74615;BME280;63121;51.458;-0.110;2022-10-16T11:37:12;101126.78;;;17.21;51.32
74615;BME280;63121;51.458;-0.110;2022-10-16T11:39:39;101126.09;;;17.16;51.58
74615;BME280;63121;51.458;-0.110;2022-10-16T11:42:13;101125.22;;;17.16;51.72
74615;BME280;63121;51.458;-0.110;2022-10-16T11:45:07;101122.41;;;17.22;52.00
74615;BME280;63121;51.458;-0.110;2022-10-16T11:48:00;101127.97;;;17.11;51.13
74615;BME280;63121;51.458;-0.110;2022-10-16T11:55:45;101127.06;;;17.39;51.04
74615;BME280;63121;51.458;-0.110;2022-10-16T12:06:27;101116.09;;;17.81;50.80
74615;BME280;63121;51.458;-0.110;2022-10-16T12:08:58;101123.19;;;18.02;49.92
74615;BME280;63121;51.458;-0.110;2022-10-16T12:11:50;101120.72;;;18.23;50.18
74615;BME280;63121;51.458;-0.110;2022-10-16T12:16:55;101116.06;;;18.55;49.89
74615;BME280;63121;51.458;-0.110;2022-10-16T12:19:24;101117.59;;;18.60;49.41
74615;BME280;63121;51.458;-0.110;2022-10-16T12:21:52;101102.66;;;18.64;49.00
74615;BME280;63121;51.458;-0.110;2022-10-16T12:24:41;101106.72;;;18.71;49.24
74615;BME280;63121;51.458;-0.110;2022-10-16T12:27:39;101107.72;;;18.91;49.24
74615;BME280;63121;51.458;-0.110;2022-10-16T12:30:06;101111.09;;;18.71;49.76
74615;BME280;63121;51.458;-0.110;2022-10-16T12:32:37;101112.72;;;19.19;48.82
74615;BME280;63121;51.458;-0.110;2022-10-16T12:35:06;101102.56;;;19.11;47.86
74615;BME280;63121;51.458;-0.110;2022-10-16T12:37:34;101097.28;;;19.33;48.14
74615;BME280;63121;51.458;-0.110;2022-10-16T12:40:13;101095.00;;;19.25;49.45
74615;BME280;63121;51.458;-0.110;2022-10-16T12:42:40;101090.50;;;19.29;49.10
74615;BME280;63121;51.458;-0.110;2022-10-16T12:45:26;101089.41;;;19.33;48.50
74615;BME280;63121;51.458;-0.110;2022-10-16T12:47:54;101091.19;;;19.33;49.40
74615;BME280;63121;51.458;-0.110;2022-10-16T12:52:49;101093.28;;;19.24;49.04
74615;BME280;63121;51.458;-0.110;2022-10-16T12:55:18;101087.34;;;19.21;50.12
74615;BME280;63121;51.458;-0.110;2022-10-16T13:00:50;101087.34;;;18.99;51.26
74615;BME280;63121;51.458;-0.110;2022-10-16T13:09:05;101089.97;;;18.99;52.05
74615;BME280;63121;51.458;-0.110;2022-10-16T13:11:54;101085.41;;;18.82;51.63
74615;BME280;63121;51.458;-0.110;2022-10-16T13:28:15;101099.09;;;18.88;51.75
74615;BME280;63121;51.458;-0.110;2022-10-16T13:30:53;101105.59;;;19.00;51.76
74615;BME280;63121;51.458;-0.110;2022-10-16T13:35:52;101111.00;;;19.18;52.37
74615;BME280;63121;51.458;-0.110;2022-10-16T13:38:20;101096.91;;;19.42;50.91
74615;BME280;63121;51.458;-0.110;2022-10-16T13:43:19;101087.94;;;19.27;52.14
74615;BME280;63121;51.458;-0.110;2022-10-16T13:46:02;101077.03;;;19.59;51.50
74615;BME280;63121;51.458;-0.110;2022-10-16T13:48:28;101079.16;;;19.69;51.84
74615;BME280;63121;51.458;-0.110;2022-10-16T13:53:34;101071.25;;;19.50;52.04
74615;BME280;63121;51.458;-0.110;2022-10-16T13:56:02;101073.34;;;19.63;51.76
74615;BME280;63121;51.458;-0.110;2022-10-16T13:58:27;101065.88;;;19.54;51.31
74615;BME280;63121;51.458;-0.110;2022-10-16T14:01:20;101075.13;;;19.83;50.98
74615;BME280;63121;51.458;-0.110;2022-10-16T14:03:49;101080.50;;;19.80;51.67
74615;BME280;63121;51.458;-0.110;2022-10-16T14:06:17;101089.78;;;19.87;51.61
74615;BME280;63121;51.458;-0.110;2022-10-16T14:08:51;101084.66;;;19.63;52.63
74615;BME280;63121;51.458;-0.110;2022-10-16T14:11:23;101081.72;;;19.92;51.48
74615;BME280;63121;51.458;-0.110;2022-10-16T14:13:49;101085.78;;;19.99;51.03
74615;BME280;63121;51.458;-0.110;2022-10-16T14:16:23;101082.06;;;19.84;51.69
74615;BME280;63121;51.458;-0.110;2022-10-16T14:19:00;101076.81;;;19.63;52.44
74615;BME280;63121;51.458;-0.110;2022-10-16T14:21:27;101076.50;;;19.50;52.54
74615;BME280;63121;51.458;-0.110;2022-10-16T14:23:53;101069.06;;;19.60;52.89
74615;BME280;63121;51.458;-0.110;2022-10-16T14:26:22;101072.31;;;19.67;52.41
74615;BME280;63121;51.458;-0.110;2022-10-16T14:28:49;101060.13;;;19.45;53.40
74615;BME280;63121;51.458;-0.110;2022-10-16T14:33:49;101066.06;;;19.49;53.30
74615;BME280;63121;51.458;-0.110;2022-10-16T14:36:15;101065.09;;;19.52;53.66
74615;BME280;63121;51.458;-0.110;2022-10-16T14:41:15;101069.56;;;19.29;54.17
74615;BME280;63121;51.458;-0.110;2022-10-16T14:43:42;101072.88;;;19.12;54.80
74615;BME280;63121;51.458;-0.110;2022-10-16T14:46:17;101067.34;;;18.98;55.21
74615;BME280;63121;51.458;-0.110;2022-10-16T14:48:45;101060.63;;;18.91;55.51
74615;BME280;63121;51.458;-0.110;2022-10-16T14:51:18;101063.09;;;18.72;55.97
74615;BME280;63121;51.458;-0.110;2022-10-16T14:53:44;101065.03;;;18.90;55.90
74615;BME280;63121;51.458;-0.110;2022-10-16T14:56:21;101072.69;;;18.95;55.97